sensor_id;sensor_type;location;lat;lon;timestamp;temperature;humidity
528;DHT22;250;47.712;7.508;2022-11-06T00:01:30;8.20;34.00
528;DHT22;250;47.712;7.508;2022-11-06T00:03:57;8.10;34.00
528;DHT22;250;47.712;7.508;2022-11-06T00:06:26;8.10;34.00
528;DHT22;250;47.712;7.508;2022-11-06T00:09:12;8.00;33.80
528;DHT22;250;47.712;7.508;2022-11-06T00:11:40;8.00;34.70
528;DHT22;250;47.712;7.508;2022-11-06T00:14:07;8.00;35.00
528;DHT22;250;47.712;7.508;2022-11-06T00:16:36;8.00;34.50
528;DHT22;250;47.712;7.508;2022-11-06T00:19:04;8.00;34.90
528;DHT22;250;47.712;7.508;2022-11-06T00:21:33;7.90;35.80
528;DHT22;250;47.712;7.508;2022-11-06T00:24:02;8.00;35.40
528;DHT22;250;47.712;7.508;2022-11-06T00:26:30;7.90;35.40
528;DHT22;250;47.712;7.508;2022-11-06T00:28:58;7.90;35.70
528;DHT22;250;47.712;7.508;2022-11-06T00:31:27;7.80;36.70
528;DHT22;250;47.712;7.508;2022-11-06T00:33:55;7.80;36.90
528;DHT22;250;47.712;7.508;2022-11-06T00:36:23;7.90;36.50
528;DHT22;250;47.712;7.508;2022-11-06T00:38:53;8.00;36.20
528;DHT22;250;47.712;7.508;2022-11-06T00:41:21;8.00;35.70
528;DHT22;250;47.712;7.508;2022-11-06T00:43:50;8.00;36.00
528;DHT22;250;47.712;7.508;2022-11-06T00:46:17;8.00;35.40
528;DHT22;250;47.712;7.508;2022-11-06T00:48:45;8.00;35.20
528;DHT22;250;47.712;7.508;2022-11-06T00:51:13;8.00;34.80
528;DHT22;250;47.712;7.508;2022-11-06T00:53:41;8.00;34.80
528;DHT22;250;47.712;7.508;2022-11-06T00:56:12;7.90;35.40
528;DHT22;250;47.712;7.508;2022-11-06T00:58:40;7.90;35.30
528;DHT22;250;47.712;7.508;2022-11-06T01:01:10;7.80;35.30
528;DHT22;250;47.712;7.508;2022-11-06T01:03:37;7.80;35.50
528;DHT22;250;47.712;7.508;2022-11-06T01:06:06;7.80;35.90
528;DHT22;250;47.712;7.508;2022-11-06T01:08:33;7.70;35.80
528;DHT22;250;47.712;7.508;2022-11-06T01:11:10;7.70;35.70
528;DHT22;250;47.712;7.508;2022-11-06T01:13:38;7.60;36.00
528;DHT22;250;47.712;7.508;2022-11-06T01:16:07;7.60;36.50
528;DHT22;250;47.712;7.508;2022-11-06T01:18:36;7.50;36.20
528;DHT22;250;47.712;7.508;2022-11-06T01:21:04;7.60;36.00
528;DHT22;250;47.712;7.508;2022-11-06T01:23:32;7.50;35.90
528;DHT22;250;47.712;7.508;2022-11-06T01:26:00;7.50;36.70
528;DHT22;250;47.712;7.508;2022-11-06T01:28:29;7.50;36.00
528;DHT22;250;47.712;7.508;2022-11-06T01:30:56;7.50;35.80
528;DHT22;250;47.712;7.508;2022-11-06T01:33:23;7.60;35.40
528;DHT22;250;47.712;7.508;2022-11-06T01:35:50;7.60;35.70
528;DHT22;250;47.712;7.508;2022-11-06T01:38:17;7.60;35.20
528;DHT22;250;47.712;7.508;2022-11-06T01:40:47;7.70;35.00
528;DHT22;250;47.712;7.508;2022-11-06T01:43:16;7.80;34.30
528;DHT22;250;47.712;7.508;2022-11-06T01:45:47;7.80;34.10
528;DHT22;250;47.712;7.508;2022-11-06T01:48:15;7.70;33.90
528;DHT22;250;47.712;7.508;2022-11-06T01:50:45;7.70;33.60
528;DHT22;250;47.712;7.508;2022-11-06T01:53:12;7.60;33.50
528;DHT22;250;47.712;7.508;2022-11-06T01:55:42;7.60;34.50
528;DHT22;250;47.712;7.508;2022-11-06T01:58:14;7.60;34.00
528;DHT22;250;47.712;7.508;2022-11-06T02:00:41;7.60;34.00
528;DHT22;250;47.712;7.508;2022-11-06T02:03:11;7.60;34.00
528;DHT22;250;47.712;7.508;2022-11-06T02:05:38;7.60;34.30
528;DHT22;250;47.712;7.508;2022-11-06T02:08:06;7.60;33.60
528;DHT22;250;47.712;7.508;2022-11-06T02:10:35;7.60;33.50
528;DHT22;250;47.712;7.508;2022-11-06T02:13:26;7.60;34.00
528;DHT22;250;47.712;7.508;2022-11-06T02:16:03;7.60;34.30
528;DHT22;250;47.712;7.508;2022-11-06T02:18:59;7.50;34.60
528;DHT22;250;47.712;7.508;2022-11-06T02:21:47;7.50;35.00
528;DHT22;250;47.712;7.508;2022-11-06T02:24:35;7.60;34.80
528;DHT22;250;47.712;7.508;2022-11-06T02:27:10;7.60;34.70
528;DHT22;250;47.712;7.508;2022-11-06T02:29:44;7.70;34.70
528;DHT22;250;47.712;7.508;2022-11-06T02:32:17;7.70;34.20
528;DHT22;250;47.712;7.508;2022-11-06T02:34:46;7.80;33.90
528;DHT22;250;47.712;7.508;2022-11-06T02:37:18;7.80;33.70
528;DHT22;250;47.712;7.508;2022-11-06T02:39:47;7.80;33.70
528;DHT22;250;47.712;7.508;2022-11-06T02:42:18;7.80;33.70
528;DHT22;250;47.712;7.508;2022-11-06T02:44:49;7.80;33.70
528;DHT22;250;47.712;7.508;2022-11-06T02:47:18;7.70;33.60
528;DHT22;250;47.712;7.508;2022-11-06T02:49:50;7.70;33.70
528;DHT22;250;47.712;7.508;2022-11-06T02:52:22;7.70;33.60
528;DHT22;250;47.712;7.508;2022-11-06T02:54:55;7.80;33.70
528;DHT22;250;47.712;7.508;2022-11-06T02:57:26;7.80;33.00
528;DHT22;250;47.712;7.508;2022-11-06T03:00:00;7.70;33.70
528;DHT22;250;47.712;7.508;2022-11-06T03:02:32;7.60;33.50
528;DHT22;250;47.712;7.508;2022-11-06T03:05:07;7.60;33.50
528;DHT22;250;47.712;7.508;2022-11-06T03:07:38;7.50;33.40
528;DHT22;250;47.712;7.508;2022-11-06T03:10:06;7.50;33.40
528;DHT22;250;47.712;7.508;2022-11-06T03:12:42;7.50;33.40
528;DHT22;250;47.712;7.508;2022-11-06T03:15:18;7.60;33.50
528;DHT22;250;47.712;7.508;2022-11-06T03:17:52;7.70;32.60
528;DHT22;250;47.712;7.508;2022-11-06T03:20:27;7.70;32.10
528;DHT22;250;47.712;7.508;2022-11-06T03:23:01;7.80;31.50
528;DHT22;250;47.712;7.508;2022-11-06T03:25:32;7.80;30.70
528;DHT22;250;47.712;7.508;2022-11-06T03:28:05;7.90;30.70
528;DHT22;250;47.712;7.508;2022-11-06T03:30:37;7.90;30.60
528;DHT22;250;47.712;7.508;2022-11-06T03:33:12;7.90;30.20
528;DHT22;250;47.712;7.508;2022-11-06T03:35:43;8.00;29.70
528;DHT22;250;47.712;7.508;2022-11-06T03:38:16;8.00;29.60
528;DHT22;250;47.712;7.508;2022-11-06T03:40:49;7.90;29.50
528;DHT22;250;47.712;7.508;2022-11-06T03:43:20;7.90;29.50
528;DHT22;250;47.712;7.508;2022-11-06T03:45:50;7.90;29.50
528;DHT22;250;47.712;7.508;2022-11-06T03:48:21;8.00;29.30
528;DHT22;250;47.712;7.508;2022-11-06T03:50:53;7.90;29.20
528;DHT22;250;47.712;7.508;2022-11-06T03:53:24;8.00;29.30
528;DHT22;250;47.712;7.508;2022-11-06T03:55:56;8.00;29.30
528;DHT22;250;47.712;7.508;2022-11-06T03:58:29;8.00;29.30
528;DHT22;250;47.712;7.508;2022-11-06T04:01:01;8.00;29.30
528;DHT22;250;47.712;7.508;2022-11-06T04:03:32;8.00;29.30
528;DHT22;250;47.712;7.508;2022-11-06T04:06:09;8.00;29.80
528;DHT22;250;47.712;7.508;2022-11-06T04:08:38;8.10;30.30
528;DHT22;250;47.712;7.508;2022-11-06T04:11:26;8.10;30.40
528;DHT22;250;47.712;7.508;2022-11-06T04:14:14;8.10;30.30
528;DHT22;250;47.712;7.508;2022-11-06T04:16:45;8.10;30.40
528;DHT22;250;47.712;7.508;2022-11-06T04:19:16;8.00;30.50
528;DHT22;250;47.712;7.508;2022-11-06T04:21:55;8.00;31.10
528;DHT22;250;47.712;7.508;2022-11-06T04:24:32;8.00;31.20
528;DHT22;250;47.712;7.508;2022-11-06T04:27:28;8.00;31.20
528;DHT22;250;47.712;7.508;2022-11-06T04:30:05;8.00;31.40
528;DHT22;250;47.712;7.508;2022-11-06T04:32:47;7.90;31.40
528;DHT22;250;47.712;7.508;2022-11-06T04:35:23;7.90;31.10
528;DHT22;250;47.712;7.508;2022-11-06T04:37:59;7.90;30.70
528;DHT22;250;47.712;7.508;2022-11-06T04:40:34;7.80;30.70
528;DHT22;250;47.712;7.508;2022-11-06T04:43:05;7.80;30.10
528;DHT22;250;47.712;7.508;2022-11-06T04:45:38;7.80;30.00
528;DHT22;250;47.712;7.508;2022-11-06T04:48:07;7.80;29.30
528;DHT22;250;47.712;7.508;2022-11-06T04:50:39;7.80;29.10
528;DHT22;250;47.712;7.508;2022-11-06T04:53:09;7.80;29.10
528;DHT22;250;47.712;7.508;2022-11-06T04:55:43;7.70;28.70
528;DHT22;250;47.712;7.508;2022-11-06T04:58:11;7.70;28.40
528;DHT22;250;47.712;7.508;2022-11-06T05:00:43;7.70;28.20
528;DHT22;250;47.712;7.508;2022-11-06T05:03:11;7.60;28.10
528;DHT22;250;47.712;7.508;2022-11-06T05:05:38;7.50;28.30
528;DHT22;250;47.712;7.508;2022-11-06T05:08:06;7.60;28.20
528;DHT22;250;47.712;7.508;2022-11-06T05:10:33;7.50;27.90
528;DHT22;250;47.712;7.508;2022-11-06T05:12:59;7.50;28.20
528;DHT22;250;47.712;7.508;2022-11-06T05:15:26;7.50;28.10
528;DHT22;250;47.712;7.508;2022-11-06T05:17:56;7.50;28.10
528;DHT22;250;47.712;7.508;2022-11-06T05:20:23;7.50;28.50
528;DHT22;250;47.712;7.508;2022-11-06T05:22:50;7.50;28.90
528;DHT22;250;47.712;7.508;2022-11-06T05:25:26;7.50;28.90
528;DHT22;250;47.712;7.508;2022-11-06T05:27:54;7.50;28.90
528;DHT22;250;47.712;7.508;2022-11-06T05:30:21;7.50;28.90
528;DHT22;250;47.712;7.508;2022-11-06T05:32:49;7.50;29.30
528;DHT22;250;47.712;7.508;2022-11-06T05:35:18;7.50;29.70
528;DHT22;250;47.712;7.508;2022-11-06T05:37:46;7.50;30.00
528;DHT22;250;47.712;7.508;2022-11-06T05:40:13;7.50;30.00
528;DHT22;250;47.712;7.508;2022-11-06T05:42:41;7.50;30.20
528;DHT22;250;47.712;7.508;2022-11-06T05:45:10;7.60;30.30
528;DHT22;250;47.712;7.508;2022-11-06T05:47:39;7.60;29.90
528;DHT22;250;47.712;7.508;2022-11-06T05:50:07;7.80;29.60
528;DHT22;250;47.712;7.508;2022-11-06T05:52:36;7.70;28.20
528;DHT22;250;47.712;7.508;2022-11-06T05:55:04;7.70;27.60
528;DHT22;250;47.712;7.508;2022-11-06T05:57:32;7.60;27.00
528;DHT22;250;47.712;7.508;2022-11-06T05:59:59;7.50;27.20
528;DHT22;250;47.712;7.508;2022-11-06T06:02:26;7.50;27.20
528;DHT22;250;47.712;7.508;2022-11-06T06:04:53;7.40;26.80
528;DHT22;250;47.712;7.508;2022-11-06T06:07:20;7.40;26.90
528;DHT22;250;47.712;7.508;2022-11-06T06:09:48;7.20;27.00
528;DHT22;250;47.712;7.508;2022-11-06T06:12:15;7.10;26.60
528;DHT22;250;47.712;7.508;2022-11-06T06:14:42;7.00;26.90
528;DHT22;250;47.712;7.508;2022-11-06T06:17:09;7.00;27.30
528;DHT22;250;47.712;7.508;2022-11-06T06:19:36;6.90;27.30
528;DHT22;250;47.712;7.508;2022-11-06T06:22:03;6.90;27.70
528;DHT22;250;47.712;7.508;2022-11-06T06:24:30;6.90;27.50
528;DHT22;250;47.712;7.508;2022-11-06T06:26:59;6.90;27.30
528;DHT22;250;47.712;7.508;2022-11-06T06:29:26;6.90;27.30
528;DHT22;250;47.712;7.508;2022-11-06T06:31:53;6.90;27.20
528;DHT22;250;47.712;7.508;2022-11-06T06:34:20;6.90;27.10
528;DHT22;250;47.712;7.508;2022-11-06T06:36:48;6.90;27.40
528;DHT22;250;47.712;7.508;2022-11-06T06:39:16;6.90;28.20
528;DHT22;250;47.712;7.508;2022-11-06T06:41:44;6.90;28.50
528;DHT22;250;47.712;7.508;2022-11-06T06:44:12;7.00;28.60
528;DHT22;250;47.712;7.508;2022-11-06T06:46:40;7.10;28.90
528;DHT22;250;47.712;7.508;2022-11-06T06:49:07;7.10;29.00
528;DHT22;250;47.712;7.508;2022-11-06T06:51:34;7.30;29.20
528;DHT22;250;47.712;7.508;2022-11-06T06:54:01;7.30;29.20
528;DHT22;250;47.712;7.508;2022-11-06T06:56:28;7.30;29.70
528;DHT22;250;47.712;7.508;2022-11-06T06:58:55;7.30;29.90
528;DHT22;250;47.712;7.508;2022-11-06T07:01:23;7.30;30.20
528;DHT22;250;47.712;7.508;2022-11-06T07:03:50;7.40;31.00
528;DHT22;250;47.712;7.508;2022-11-06T07:06:18;7.30;32.00
528;DHT22;250;47.712;7.508;2022-11-06T07:08:45;7.30;32.30
528;DHT22;250;47.712;7.508;2022-11-06T07:11:12;7.30;33.30
528;DHT22;250;47.712;7.508;2022-11-06T07:13:39;7.30;34.00
528;DHT22;250;47.712;7.508;2022-11-06T07:16:08;7.40;34.70
528;DHT22;250;47.712;7.508;2022-11-06T07:18:38;7.40;35.20
528;DHT22;250;47.712;7.508;2022-11-06T07:21:06;7.40;35.50
528;DHT22;250;47.712;7.508;2022-11-06T07:23:34;7.50;35.60
528;DHT22;250;47.712;7.508;2022-11-06T07:26:02;7.40;36.10
528;DHT22;250;47.712;7.508;2022-11-06T07:28:29;7.50;37.10
528;DHT22;250;47.712;7.508;2022-11-06T07:30:58;7.50;37.30
528;DHT22;250;47.712;7.508;2022-11-06T07:33:25;7.60;36.90
528;DHT22;250;47.712;7.508;2022-11-06T07:35:54;7.70;36.50
528;DHT22;250;47.712;7.508;2022-11-06T07:38:23;7.70;36.40
528;DHT22;250;47.712;7.508;2022-11-06T07:40:50;7.80;36.20
528;DHT22;250;47.712;7.508;2022-11-06T07:43:17;7.80;35.90
528;DHT22;250;47.712;7.508;2022-11-06T07:45:44;7.90;36.00
528;DHT22;250;47.712;7.508;2022-11-06T07:48:11;7.90;35.80
528;DHT22;250;47.712;7.508;2022-11-06T07:50:38;8.00;35.50
528;DHT22;250;47.712;7.508;2022-11-06T07:53:07;8.10;35.70
528;DHT22;250;47.712;7.508;2022-11-06T07:55:34;8.20;35.10
528;DHT22;250;47.712;7.508;2022-11-06T07:58:01;8.30;34.70
528;DHT22;250;47.712;7.508;2022-11-06T08:00:28;8.30;34.50
528;DHT22;250;47.712;7.508;2022-11-06T08:02:55;8.40;34.20
528;DHT22;250;47.712;7.508;2022-11-06T08:05:21;8.50;34.30
528;DHT22;250;47.712;7.508;2022-11-06T08:07:48;8.60;34.30
528;DHT22;250;47.712;7.508;2022-11-06T08:10:22;8.70;32.80
528;DHT22;250;47.712;7.508;2022-11-06T08:12:49;8.70;32.40
528;DHT22;250;47.712;7.508;2022-11-06T08:15:16;8.60;32.80
528;DHT22;250;47.712;7.508;2022-11-06T08:17:45;8.60;32.60
528;DHT22;250;47.712;7.508;2022-11-06T08:20:15;8.70;32.80
528;DHT22;250;47.712;7.508;2022-11-06T08:22:44;8.80;32.50
528;DHT22;250;47.712;7.508;2022-11-06T08:25:11;8.80;32.20
528;DHT22;250;47.712;7.508;2022-11-06T08:27:39;8.90;32.40
528;DHT22;250;47.712;7.508;2022-11-06T08:30:07;9.00;31.00
528;DHT22;250;47.712;7.508;2022-11-06T08:32:34;9.00;31.60
528;DHT22;250;47.712;7.508;2022-11-06T08:35:02;9.00;32.10
528;DHT22;250;47.712;7.508;2022-11-06T08:37:29;9.00;31.80
528;DHT22;250;47.712;7.508;2022-11-06T08:39:56;9.00;31.70
528;DHT22;250;47.712;7.508;2022-11-06T08:42:23;9.00;32.50
528;DHT22;250;47.712;7.508;2022-11-06T08:44:52;9.10;31.40
528;DHT22;250;47.712;7.508;2022-11-06T08:47:19;9.00;31.40
528;DHT22;250;47.712;7.508;2022-11-06T08:49:46;9.10;31.30
528;DHT22;250;47.712;7.508;2022-11-06T08:52:13;9.10;31.30
528;DHT22;250;47.712;7.508;2022-11-06T08:54:40;9.20;31.70
528;DHT22;250;47.712;7.508;2022-11-06T08:57:07;9.40;32.40
528;DHT22;250;47.712;7.508;2022-11-06T08:59:34;9.50;31.30
528;DHT22;250;47.712;7.508;2022-11-06T09:02:02;9.70;31.00
528;DHT22;250;47.712;7.508;2022-11-06T09:04:30;9.70;30.60
528;DHT22;250;47.712;7.508;2022-11-06T09:06:59;9.80;30.50
528;DHT22;250;47.712;7.508;2022-11-06T09:09:27;9.90;30.60
528;DHT22;250;47.712;7.508;2022-11-06T09:11:56;10.00;29.30
528;DHT22;250;47.712;7.508;2022-11-06T09:14:24;10.00;29.70
528;DHT22;250;47.712;7.508;2022-11-06T09:16:50;10.10;29.40
528;DHT22;250;47.712;7.508;2022-11-06T09:19:19;10.10;29.00
528;DHT22;250;47.712;7.508;2022-11-06T09:21:46;10.10;28.50
528;DHT22;250;47.712;7.508;2022-11-06T09:24:13;10.00;28.10
528;DHT22;250;47.712;7.508;2022-11-06T09:26:40;10.00;27.90
528;DHT22;250;47.712;7.508;2022-11-06T09:29:07;9.90;29.60
528;DHT22;250;47.712;7.508;2022-11-06T09:31:34;9.90;29.40
528;DHT22;250;47.712;7.508;2022-11-06T09:34:01;9.90;29.90
528;DHT22;250;47.712;7.508;2022-11-06T09:36:30;9.90;30.00
528;DHT22;250;47.712;7.508;2022-11-06T09:38:57;10.00;29.00
528;DHT22;250;47.712;7.508;2022-11-06T09:41:29;10.00;28.20
528;DHT22;250;47.712;7.508;2022-11-06T09:44:07;10.10;28.80
528;DHT22;250;47.712;7.508;2022-11-06T09:46:40;10.10;28.30
528;DHT22;250;47.712;7.508;2022-11-06T09:49:15;10.10;28.80
528;DHT22;250;47.712;7.508;2022-11-06T09:51:47;10.20;28.40
528;DHT22;250;47.712;7.508;2022-11-06T09:54:20;10.30;28.10
528;DHT22;250;47.712;7.508;2022-11-06T09:56:52;10.20;27.90
528;DHT22;250;47.712;7.508;2022-11-06T09:59:21;10.20;27.80
528;DHT22;250;47.712;7.508;2022-11-06T10:01:50;10.20;28.30
528;DHT22;250;47.712;7.508;2022-11-06T10:04:31;10.30;27.80
528;DHT22;250;47.712;7.508;2022-11-06T10:07:02;10.40;28.30
528;DHT22;250;47.712;7.508;2022-11-06T10:09:29;10.40;27.80
528;DHT22;250;47.712;7.508;2022-11-06T10:12:05;10.40;27.60
528;DHT22;250;47.712;7.508;2022-11-06T10:14:48;10.50;27.70
528;DHT22;250;47.712;7.508;2022-11-06T10:17:27;10.60;27.90
528;DHT22;250;47.712;7.508;2022-11-06T10:20:06;10.70;27.00
528;DHT22;250;47.712;7.508;2022-11-06T10:22:40;10.70;27.20
528;DHT22;250;47.712;7.508;2022-11-06T10:25:17;10.70;26.50
528;DHT22;250;47.712;7.508;2022-11-06T10:27:55;10.80;26.50
528;DHT22;250;47.712;7.508;2022-11-06T10:30:23;10.80;26.50
528;DHT22;250;47.712;7.508;2022-11-06T10:33:10;10.80;26.50
528;DHT22;250;47.712;7.508;2022-11-06T10:35:44;10.80;25.80
528;DHT22;250;47.712;7.508;2022-11-06T10:38:14;10.70;26.50
528;DHT22;250;47.712;7.508;2022-11-06T10:40:44;10.80;26.10
528;DHT22;250;47.712;7.508;2022-11-06T10:43:23;10.80;26.40
528;DHT22;250;47.712;7.508;2022-11-06T10:45:54;10.80;26.00
528;DHT22;250;47.712;7.508;2022-11-06T10:48:25;10.80;26.50
528;DHT22;250;47.712;7.508;2022-11-06T10:51:03;10.90;25.60
528;DHT22;250;47.712;7.508;2022-11-06T10:53:43;10.90;25.40
528;DHT22;250;47.712;7.508;2022-11-06T10:56:35;10.90;25.50
528;DHT22;250;47.712;7.508;2022-11-06T10:59:07;10.90;25.10
528;DHT22;250;47.712;7.508;2022-11-06T11:01:35;10.90;25.30
528;DHT22;250;47.712;7.508;2022-11-06T11:04:03;11.00;25.10
528;DHT22;250;47.712;7.508;2022-11-06T11:06:30;11.00;25.60
528;DHT22;250;47.712;7.508;2022-11-06T11:08:59;11.10;25.60
528;DHT22;250;47.712;7.508;2022-11-06T11:11:27;11.20;25.30
528;DHT22;250;47.712;7.508;2022-11-06T11:14:18;11.40;24.20
528;DHT22;250;47.712;7.508;2022-11-06T11:16:47;11.50;23.70
528;DHT22;250;47.712;7.508;2022-11-06T11:19:31;11.50;23.10
528;DHT22;250;47.712;7.508;2022-11-06T11:22:00;11.60;23.20
528;DHT22;250;47.712;7.508;2022-11-06T11:24:29;11.70;23.30
528;DHT22;250;47.712;7.508;2022-11-06T11:26:59;11.70;23.10
528;DHT22;250;47.712;7.508;2022-11-06T11:29:30;11.80;22.90
528;DHT22;250;47.712;7.508;2022-11-06T11:32:00;11.80;22.30
528;DHT22;250;47.712;7.508;2022-11-06T11:34:29;11.80;21.80
528;DHT22;250;47.712;7.508;2022-11-06T11:36:59;11.80;22.20
528;DHT22;250;47.712;7.508;2022-11-06T11:39:30;11.80;22.00
528;DHT22;250;47.712;7.508;2022-11-06T11:42:16;11.70;21.70
528;DHT22;250;47.712;7.508;2022-11-06T11:44:43;11.70;20.90
528;DHT22;250;47.712;7.508;2022-11-06T11:47:20;11.70;21.00
528;DHT22;250;47.712;7.508;2022-11-06T11:49:47;11.60;21.30
528;DHT22;250;47.712;7.508;2022-11-06T11:52:18;11.50;22.20
528;DHT22;250;47.712;7.508;2022-11-06T11:54:50;11.50;22.30
528;DHT22;250;47.712;7.508;2022-11-06T11:57:21;11.60;21.60
528;DHT22;250;47.712;7.508;2022-11-06T11:59:53;11.50;22.10
528;DHT22;250;47.712;7.508;2022-11-06T12:02:28;11.50;21.90
528;DHT22;250;47.712;7.508;2022-11-06T12:05:00;11.50;22.30
528;DHT22;250;47.712;7.508;2022-11-06T12:07:29;11.50;22.10
528;DHT22;250;47.712;7.508;2022-11-06T12:09:59;11.60;22.20
528;DHT22;250;47.712;7.508;2022-11-06T12:12:29;11.60;22.00
528;DHT22;250;47.712;7.508;2022-11-06T12:15:15;11.50;22.00
528;DHT22;250;47.712;7.508;2022-11-06T12:17:47;11.50;22.10
528;DHT22;250;47.712;7.508;2022-11-06T12:20:19;11.40;22.40
528;DHT22;250;47.712;7.508;2022-11-06T12:22:48;11.50;21.80
528;DHT22;250;47.712;7.508;2022-11-06T12:25:21;11.40;22.00
528;DHT22;250;47.712;7.508;2022-11-06T12:27:52;11.40;22.30
528;DHT22;250;47.712;7.508;2022-11-06T12:30:20;11.40;22.40
528;DHT22;250;47.712;7.508;2022-11-06T12:33:02;11.50;22.00
528;DHT22;250;47.712;7.508;2022-11-06T12:35:35;11.40;21.70
528;DHT22;250;47.712;7.508;2022-11-06T12:38:10;11.40;22.10
528;DHT22;250;47.712;7.508;2022-11-06T12:40:46;11.30;22.40
528;DHT22;250;47.712;7.508;2022-11-06T12:43:19;11.40;22.50
528;DHT22;250;47.712;7.508;2022-11-06T12:46:05;11.40;22.50
528;DHT22;250;47.712;7.508;2022-11-06T12:51:41;11.50;22.20
528;DHT22;250;47.712;7.508;2022-11-06T12:54:33;11.60;22.10
528;DHT22;250;47.712;7.508;2022-11-06T12:57:14;11.70;22.40
528;DHT22;250;47.712;7.508;2022-11-06T12:59:55;11.80;22.20
528;DHT22;250;47.712;7.508;2022-11-06T13:02:46;11.80;22.00
528;DHT22;250;47.712;7.508;2022-11-06T13:05:17;11.90;21.20
528;DHT22;250;47.712;7.508;2022-11-06T13:08:00;12.00;21.40
528;DHT22;250;47.712;7.508;2022-11-06T13:10:39;12.50;22.40
528;DHT22;250;47.712;7.508;2022-11-06T13:13:30;13.60;20.60
528;DHT22;250;47.712;7.508;2022-11-06T13:16:06;14.60;18.20
528;DHT22;250;47.712;7.508;2022-11-06T13:18:36;14.70;17.30
528;DHT22;250;47.712;7.508;2022-11-06T13:21:12;14.40;17.10
528;DHT22;250;47.712;7.508;2022-11-06T13:23:46;13.90;17.00
528;DHT22;250;47.712;7.508;2022-11-06T13:26:18;13.50;17.30
528;DHT22;250;47.712;7.508;2022-11-06T13:28:52;13.10;17.80
528;DHT22;250;47.712;7.508;2022-11-06T13:31:23;12.90;18.70
528;DHT22;250;47.712;7.508;2022-11-06T13:33:53;12.70;19.00
528;DHT22;250;47.712;7.508;2022-11-06T13:36:21;12.60;19.00
528;DHT22;250;47.712;7.508;2022-11-06T13:38:52;12.50;19.80
528;DHT22;250;47.712;7.508;2022-11-06T13:41:22;12.50;19.80
528;DHT22;250;47.712;7.508;2022-11-06T13:43:57;12.40;19.80
528;DHT22;250;47.712;7.508;2022-11-06T13:46:31;12.40;19.70
528;DHT22;250;47.712;7.508;2022-11-06T13:49:15;12.40;19.70
528;DHT22;250;47.712;7.508;2022-11-06T13:51:48;12.40;19.80
528;DHT22;250;47.712;7.508;2022-11-06T13:54:22;12.30;19.70
528;DHT22;250;47.712;7.508;2022-11-06T13:57:26;12.30;19.70
528;DHT22;250;47.712;7.508;2022-11-06T14:00:14;12.20;19.60
528;DHT22;250;47.712;7.508;2022-11-06T14:05:49;12.10;19.80
528;DHT22;250;47.712;7.508;2022-11-06T14:08:21;12.10;19.50
528;DHT22;250;47.712;7.508;2022-11-06T14:10:54;12.10;19.60
528;DHT22;250;47.712;7.508;2022-11-06T14:13:24;12.10;19.40
528;DHT22;250;47.712;7.508;2022-11-06T14:16:24;12.10;19.60
528;DHT22;250;47.712;7.508;2022-11-06T14:19:01;12.10;19.30
528;DHT22;250;47.712;7.508;2022-11-06T14:21:50;12.20;19.60
528;DHT22;250;47.712;7.508;2022-11-06T14:24:30;12.20;18.90
528;DHT22;250;47.712;7.508;2022-11-06T14:26:58;12.20;18.90
528;DHT22;250;47.712;7.508;2022-11-06T14:32:46;12.10;19.60
528;DHT22;250;47.712;7.508;2022-11-06T14:38:34;12.00;19.50
528;DHT22;250;47.712;7.508;2022-11-06T14:44:42;11.90;19.80
528;DHT22;250;47.712;7.508;2022-11-06T14:50:22;11.80;20.50
528;DHT22;250;47.712;7.508;2022-11-06T14:52:52;11.80;20.90
528;DHT22;250;47.712;7.508;2022-11-06T14:55:28;11.80;21.10
528;DHT22;250;47.712;7.508;2022-11-06T14:57:59;11.80;21.40
528;DHT22;250;47.712;7.508;2022-11-06T15:00:36;11.80;21.30
528;DHT22;250;47.712;7.508;2022-11-06T15:03:13;11.70;21.60
528;DHT22;250;47.712;7.508;2022-11-06T15:05:45;11.70;21.60
528;DHT22;250;47.712;7.508;2022-11-06T15:08:52;11.70;21.50
528;DHT22;250;47.712;7.508;2022-11-06T15:11:48;11.70;21.80
528;DHT22;250;47.712;7.508;2022-11-06T15:17:21;11.50;22.10
528;DHT22;250;47.712;7.508;2022-11-06T15:19:55;11.50;22.00
528;DHT22;250;47.712;7.508;2022-11-06T15:22:30;11.50;22.00
528;DHT22;250;47.712;7.508;2022-11-06T15:25:02;11.40;22.30
528;DHT22;250;47.712;7.508;2022-11-06T15:27:40;11.40;22.40
528;DHT22;250;47.712;7.508;2022-11-06T15:30:14;11.50;22.00
528;DHT22;250;47.712;7.508;2022-11-06T15:32:43;11.40;22.00
528;DHT22;250;47.712;7.508;2022-11-06T15:35:14;11.40;22.10
528;DHT22;250;47.712;7.508;2022-11-06T15:37:45;11.40;21.90
528;DHT22;250;47.712;7.508;2022-11-06T15:40:27;11.30;22.00
528;DHT22;250;47.712;7.508;2022-11-06T15:42:57;11.30;21.60
528;DHT22;250;47.712;7.508;2022-11-06T15:45:26;11.30;22.00
528;DHT22;250;47.712;7.508;2022-11-06T15:47:55;11.30;22.10
528;DHT22;250;47.712;7.508;2022-11-06T15:50:25;11.20;22.20
528;DHT22;250;47.712;7.508;2022-11-06T15:53:03;11.20;22.70
528;DHT22;250;47.712;7.508;2022-11-06T15:55:37;11.20;22.70
528;DHT22;250;47.712;7.508;2022-11-06T15:58:05;11.30;22.30
528;DHT22;250;47.712;7.508;2022-11-06T16:00:34;11.30;22.50
528;DHT22;250;47.712;7.508;2022-11-06T16:03:04;11.30;22.40
528;DHT22;250;47.712;7.508;2022-11-06T16:05:34;11.20;22.80
528;DHT22;250;47.712;7.508;2022-11-06T16:08:04;11.20;22.90
528;DHT22;250;47.712;7.508;2022-11-06T16:10:33;11.20;22.90
528;DHT22;250;47.712;7.508;2022-11-06T16:13:02;11.20;22.90
528;DHT22;250;47.712;7.508;2022-11-06T16:15:47;11.20;22.90
528;DHT22;250;47.712;7.508;2022-11-06T16:18:16;11.20;22.90
528;DHT22;250;47.712;7.508;2022-11-06T16:20:46;11.20;22.90
528;DHT22;250;47.712;7.508;2022-11-06T16:23:17;11.20;22.90
528;DHT22;250;47.712;7.508;2022-11-06T16:25:45;11.20;22.90
528;DHT22;250;47.712;7.508;2022-11-06T16:28:15;11.20;22.90
528;DHT22;250;47.712;7.508;2022-11-06T16:30:44;11.20;22.90
528;DHT22;250;47.712;7.508;2022-11-06T16:33:18;11.20;22.90
528;DHT22;250;47.712;7.508;2022-11-06T16:35:48;11.20;23.10
528;DHT22;250;47.712;7.508;2022-11-06T16:38:36;11.10;22.80
528;DHT22;250;47.712;7.508;2022-11-06T16:41:04;11.10;22.80
528;DHT22;250;47.712;7.508;2022-11-06T16:43:31;11.20;23.00
528;DHT22;250;47.712;7.508;2022-11-06T16:46:00;11.10;22.80
528;DHT22;250;47.712;7.508;2022-11-06T16:48:38;11.10;22.50
528;DHT22;250;47.712;7.508;2022-11-06T16:51:08;11.20;22.90
528;DHT22;250;47.712;7.508;2022-11-06T16:53:50;11.20;22.90
528;DHT22;250;47.712;7.508;2022-11-06T16:56:22;11.20;22.90
528;DHT22;250;47.712;7.508;2022-11-06T16:58:54;11.10;23.40
528;DHT22;250;47.712;7.508;2022-11-06T17:01:22;11.10;23.50
528;DHT22;250;47.712;7.508;2022-11-06T17:03:54;11.10;23.40
528;DHT22;250;47.712;7.508;2022-11-06T17:06:24;11.10;23.40
528;DHT22;250;47.712;7.508;2022-11-06T17:09:05;11.10;23.10
528;DHT22;250;47.712;7.508;2022-11-06T17:11:33;11.20;23.50
528;DHT22;250;47.712;7.508;2022-11-06T17:14:13;11.10;23.90
528;DHT22;250;47.712;7.508;2022-11-06T17:16:46;11.10;23.80
528;DHT22;250;47.712;7.508;2022-11-06T17:19:14;11.00;23.80
528;DHT22;250;47.712;7.508;2022-11-06T17:21:41;11.10;24.00
528;DHT22;250;47.712;7.508;2022-11-06T17:24:10;11.00;24.10
528;DHT22;250;47.712;7.508;2022-11-06T17:26:39;11.10;24.30
528;DHT22;250;47.712;7.508;2022-11-06T17:29:09;11.00;24.50
528;DHT22;250;47.712;7.508;2022-11-06T17:31:37;11.00;24.50
528;DHT22;250;47.712;7.508;2022-11-06T17:34:05;11.00;24.70
528;DHT22;250;47.712;7.508;2022-11-06T17:36:33;10.90;24.70